PRIVATE WETTERSTATION BILLIGHEIM-ALLFELD                       ZURCK
Wetterdaten: Montag, 04.09.2017
Datum Zeit Temp. A. Temp. A. min Temp. A. max Feuchte A. Luftdruck Regen Wind Richtung Richtung Sonnenschein ET Solar Taupunkt Windchill Windben Empfang
04.09.2017 00:00 9,6 C 9,6 C 9,8 C 89 % 1015,1 hPa 0,0 l/m 0,0 km/h (0 Bft) NW 315 0 min 0,000 mm 0 W/m 7,9 C 9,6 C 1,6 km/h (1 Bft) 100 %
04.09.2017 00:10 9,4 C 9,4 C 9,6 C 89 % 1015,1 hPa 0,0 l/m 0,0 km/h (0 Bft) N 0 0 min 0,000 mm 0 W/m 7,7 C 9,4 C 0,0 km/h (0 Bft) 100 %
04.09.2017 00:20 9,3 C 9,3 C 9,4 C 89 % 1015,0 hPa 0,0 l/m 0,0 km/h (0 Bft) N 0 0 min 0,000 mm 0 W/m 7,6 C 9,3 C 0,0 km/h (0 Bft) 100 %
04.09.2017 00:30 9,2 C 9,2 C 9,3 C 89 % 1015,0 hPa 0,0 l/m 0,0 km/h (0 Bft) NW 315 0 min 0,000 mm 0 W/m 7,5 C 9,2 C 1,6 km/h (1 Bft) 100 %
04.09.2017 00:40 9,1 C 9,1 C 9,2 C 89 % 1014,9 hPa 0,0 l/m 0,0 km/h (0 Bft) NW 315 0 min 0,000 mm 0 W/m 7,4 C 9,1 C 1,6 km/h (1 Bft) 100 %
04.09.2017 00:50 8,9 C 8,9 C 9,1 C 89 % 1015,0 hPa 0,0 l/m 0,0 km/h (0 Bft) N 0 0 min 0,000 mm 0 W/m 7,2 C 8,9 C 0,0 km/h (0 Bft) 100 %
04.09.2017 01:00 8,8 C 8,8 C 8,9 C 89 % 1015,0 hPa 0,0 l/m 0,0 km/h (0 Bft) NW 315 0 min 0,000 mm 0 W/m 7,1 C 8,8 C 1,6 km/h (1 Bft) 100 %
04.09.2017 01:10 8,7 C 8,7 C 8,8 C 89 % 1015,0 hPa 0,0 l/m 0,0 km/h (0 Bft) NW 315 0 min 0,000 mm 0 W/m 7,0 C 8,7 C 1,6 km/h (1 Bft) 100 %
04.09.2017 01:20 8,6 C 8,6 C 8,7 C 89 % 1015,0 hPa 0,0 l/m 0,0 km/h (0 Bft) N 0 0 min 0,000 mm 0 W/m 6,9 C 8,6 C 0,0 km/h (0 Bft) 90 %
04.09.2017 01:30 8,5 C 8,5 C 8,6 C 89 % 1015,0 hPa 0,0 l/m 0,0 km/h (0 Bft) NW 315 0 min 0,000 mm 0 W/m 6,8 C 8,5 C 1,6 km/h (1 Bft) 100 %
04.09.2017 01:40 8,4 C 8,4 C 8,5 C 89 % 1014,9 hPa 0,0 l/m 0,0 km/h (0 Bft) N 0 0 min 0,000 mm 0 W/m 6,7 C 8,4 C 0,0 km/h (0 Bft) 100 %
04.09.2017 01:50 8,2 C 8,2 C 8,4 C 89 % 1014,8 hPa 0,0 l/m 0,0 km/h (0 Bft) NW 315 0 min 0,000 mm 0 W/m 6,5 C 8,2 C 1,6 km/h (1 Bft) 100 %
04.09.2017 02:00 8,1 C 8,1 C 8,2 C 89 % 1014,8 hPa 0,0 l/m 0,0 km/h (0 Bft) N 0 0 min 0,000 mm 0 W/m 6,4 C 8,1 C 0,0 km/h (0 Bft) 100 %
04.09.2017 02:10 7,9 C 7,9 C 8,1 C 89 % 1014,9 hPa 0,0 l/m 0,0 km/h (0 Bft) NW 315 0 min 0,000 mm 0 W/m 6,2 C 7,9 C 1,6 km/h (1 Bft) 100 %
04.09.2017 02:20 7,8 C 7,8 C 7,9 C 89 % 1014,8 hPa 0,0 l/m 0,0 km/h (0 Bft) N 0 0 min 0,000 mm 0 W/m 6,1 C 7,8 C 0,0 km/h (0 Bft) 100 %
04.09.2017 02:30 7,7 C 7,7 C 7,8 C 89 % 1014,8 hPa 0,0 l/m 0,0 km/h (0 Bft) N 0 0 min 0,000 mm 0 W/m 6,0 C 7,7 C 0,0 km/h (0 Bft) 100 %
04.09.2017 02:40 7,7 C 7,7 C 7,7 C 89 % 1014,8 hPa 0,0 l/m 0,0 km/h (0 Bft) N 0 0 min 0,000 mm 0 W/m 6,0 C 7,7 C 0,0 km/h (0 Bft) 100 %
04.09.2017 02:50 7,6 C 7,6 C 7,7 C 89 % 1014,8 hPa 0,0 l/m 0,0 km/h (0 Bft) NW 315 0 min 0,000 mm 0 W/m 5,9 C 7,6 C 1,6 km/h (1 Bft) 100 %
04.09.2017 03:00 7,5 C 7,5 C 7,6 C 89 % 1014,8 hPa 0,0 l/m 0,0 km/h (0 Bft) N 0 0 min 0,000 mm 0 W/m 5,8 C 7,5 C 0,0 km/h (0 Bft) 100 %
04.09.2017 03:10 7,4 C 7,4 C 7,5 C 89 % 1014,8 hPa 0,0 l/m 0,0 km/h (0 Bft) N 0 0 min 0,000 mm 0 W/m 5,7 C 7,4 C 0,0 km/h (0 Bft) 100 %
04.09.2017 03:20 7,3 C 7,3 C 7,4 C 89 % 1014,8 hPa 0,0 l/m 0,0 km/h (0 Bft) N 0 0 min 0,000 mm 0 W/m 5,6 C 7,3 C 0,0 km/h (0 Bft) 100 %
04.09.2017 03:30 7,2 C 7,2 C 7,3 C 89 % 1014,9 hPa 0,0 l/m 0,0 km/h (0 Bft) N 0 0 min 0,000 mm 0 W/m 5,5 C 7,2 C 0,0 km/h (0 Bft) 99 %
04.09.2017 03:40 7,1 C 7,1 C 7,2 C 89 % 1014,9 hPa 0,0 l/m 0,0 km/h (0 Bft) N 0 0 min 0,000 mm 0 W/m 5,4 C 7,1 C 0,0 km/h (0 Bft) 89 %
04.09.2017 03:50 7,0 C 7,0 C 7,1 C 89 % 1014,8 hPa 0,0 l/m 0,0 km/h (0 Bft) N 0 0 min 0,000 mm 0 W/m 5,3 C 7,0 C 0,0 km/h (0 Bft) 100 %
04.09.2017 04:00 6,9 C 6,9 C 7,1 C 89 % 1014,8 hPa 0,0 l/m 0,0 km/h (0 Bft) N 0 0 min 0,000 mm 0 W/m 5,2 C 6,9 C 0,0 km/h (0 Bft) 100 %
04.09.2017 04:10 6,9 C 6,9 C 6,9 C 89 % 1014,8 hPa 0,0 l/m 0,0 km/h (0 Bft) N 0 0 min 0,000 mm 0 W/m 5,2 C 6,9 C 0,0 km/h (0 Bft) 100 %
04.09.2017 04:20 6,9 C 6,9 C 6,9 C 89 % 1014,6 hPa 0,0 l/m 0,0 km/h (0 Bft) N 0 0 min 0,000 mm 0 W/m 5,2 C 6,9 C 0,0 km/h (0 Bft) 100 %
04.09.2017 04:30 6,8 C 6,8 C 6,9 C 89 % 1014,5 hPa 0,0 l/m 0,0 km/h (0 Bft) NW 315 0 min 0,000 mm 0 W/m 5,1 C 6,8 C 1,6 km/h (1 Bft) 100 %
04.09.2017 04:40 6,7 C 6,7 C 6,8 C 89 % 1014,6 hPa 0,0 l/m 0,0 km/h (0 Bft) N 0 0 min 0,000 mm 0 W/m 5,0 C 6,7 C 0,0 km/h (0 Bft) 100 %
04.09.2017 04:50 6,6 C 6,6 C 6,7 C 90 % 1014,7 hPa 0,0 l/m 0,0 km/h (0 Bft) N 0 0 min 0,000 mm 0 W/m 5,1 C 6,6 C 0,0 km/h (0 Bft) 100 %
04.09.2017 05:00 6,5 C 6,5 C 6,6 C 89 % 1014,5 hPa 0,0 l/m 0,0 km/h (0 Bft) N 0 0 min 0,000 mm 0 W/m 4,8 C 6,5 C 0,0 km/h (0 Bft) 100 %
04.09.2017 05:10 6,4 C 6,4 C 6,5 C 89 % 1014,6 hPa 0,0 l/m 0,0 km/h (0 Bft) N 0 0 min 0,000 mm 0 W/m 4,7 C 6,4 C 0,0 km/h (0 Bft) 100 %
04.09.2017 05:20 6,3 C 6,3 C 6,4 C 90 % 1014,7 hPa 0,0 l/m 0,0 km/h (0 Bft) N 0 0 min 0,000 mm 0 W/m 4,8 C 6,3 C 0,0 km/h (0 Bft) 100 %
04.09.2017 05:30 6,2 C 6,2 C 6,3 C 89 % 1014,8 hPa 0,0 l/m 0,0 km/h (0 Bft) N 0 0 min 0,000 mm 0 W/m 4,5 C 6,2 C 0,0 km/h (0 Bft) 100 %
04.09.2017 05:40 6,2 C 6,2 C 6,2 C 89 % 1014,7 hPa 0,0 l/m 0,0 km/h (0 Bft) N 0 0 min 0,000 mm 0 W/m 4,5 C 6,2 C 0,0 km/h (0 Bft) 100 %
04.09.2017 05:50 6,2 C 6,2 C 6,2 C 89 % 1014,8 hPa 0,0 l/m 0,0 km/h (0 Bft) N 0 0 min 0,000 mm 0 W/m 4,5 C 6,2 C 0,0 km/h (0 Bft) 100 %
04.09.2017 06:00 6,1 C 6,1 C 6,2 C 89 % 1014,8 hPa 0,0 l/m 0,0 km/h (0 Bft) NW 315 0 min 0,000 mm 0 W/m 4,4 C 6,1 C 1,6 km/h (1 Bft) 100 %
04.09.2017 06:10 6,1 C 6,1 C 6,1 C 90 % 1014,9 hPa 0,0 l/m 0,0 km/h (0 Bft) N 0 0 min 0,000 mm 0 W/m 4,6 C 6,1 C 0,0 km/h (0 Bft) 100 %
04.09.2017 06:20 5,9 C 5,9 C 6,1 C 90 % 1014,9 hPa 0,0 l/m 0,0 km/h (0 Bft) N 0 0 min 0,000 mm 0 W/m 4,4 C 5,9 C 0,0 km/h (0 Bft) 100 %
04.09.2017 06:30 5,9 C 5,9 C 5,9 C 90 % 1014,9 hPa 0,0 l/m 0,0 km/h (0 Bft) N 0 0 min 0,000 mm 0 W/m 4,4 C 5,9 C 0,0 km/h (0 Bft) 100 %
04.09.2017 06:40 5,9 C 5,9 C 5,9 C 90 % 1014,9 hPa 0,0 l/m 0,0 km/h (0 Bft) N 0 0 min 0,000 mm 0 W/m 4,4 C 5,9 C 0,0 km/h (0 Bft) 100 %
04.09.2017 06:50 5,8 C 5,8 C 5,9 C 90 % 1014,9 hPa 0,0 l/m 0,0 km/h (0 Bft) N 0 0 min 0,000 mm 5 W/m 4,3 C 5,8 C 0,0 km/h (0 Bft) 100 %
04.09.2017 07:00 5,8 C 5,7 C 5,8 C 90 % 1015,0 hPa 0,0 l/m 0,0 km/h (0 Bft) N 0 0 min 0,000 mm 12 W/m 4,3 C 5,8 C 0,0 km/h (0 Bft) 100 %
04.09.2017 07:10 5,7 C 5,7 C 5,8 C 90 % 1015,0 hPa 0,0 l/m 0,0 km/h (0 Bft) N 0 0 min 0,000 mm 30 W/m 4,2 C 5,7 C 0,0 km/h (0 Bft) 100 %
04.09.2017 07:20 5,8 C 5,7 C 5,8 C 90 % 1014,9 hPa 0,0 l/m 0,0 km/h (0 Bft) N 0 0 min 0,000 mm 32 W/m 4,3 C 5,8 C 0,0 km/h (0 Bft) 100 %
04.09.2017 07:30 5,8 C 5,8 C 5,8 C 90 % 1015,0 hPa 0,0 l/m 0,0 km/h (0 Bft) N 0 0 min 0,000 mm 32 W/m 4,3 C 5,8 C 0,0 km/h (0 Bft) 100 %
04.09.2017 07:40 5,9 C 5,8 C 5,9 C 90 % 1015,1 hPa 0,0 l/m 0,0 km/h (0 Bft) N 0 0 min 0,000 mm 26 W/m 4,4 C 5,9 C 0,0 km/h (0 Bft) 100 %
04.09.2017 07:50 6,0 C 5,9 C 6,0 C 90 % 1015,3 hPa 0,0 l/m 0,0 km/h (0 Bft) N 0 0 min 0,000 mm 21 W/m 4,5 C 6,0 C 0,0 km/h (0 Bft) 100 %
04.09.2017 08:00 6,1 C 6,0 C 6,1 C 90 % 1015,4 hPa 0,0 l/m 0,0 km/h (0 Bft) NW 315 0 min 0,000 mm 23 W/m 4,6 C 6,1 C 1,6 km/h (1 Bft) 87 %
04.09.2017 08:10 6,2 C 6,1 C 6,2 C 90 % 1015,4 hPa 0,0 l/m 0,0 km/h (0 Bft) N 0 0 min 0,000 mm 30 W/m 4,7 C 6,2 C 0,0 km/h (0 Bft) 100 %
04.09.2017 08:20 6,4 C 6,2 C 6,4 C 90 % 1015,4 hPa 0,0 l/m 0,0 km/h (0 Bft) N 0 0 min 0,000 mm 35 W/m 4,9 C 6,4 C 0,0 km/h (0 Bft) 100 %
04.09.2017 08:30 6,6 C 6,4 C 6,6 C 90 % 1015,4 hPa 0,0 l/m 0,0 km/h (0 Bft) N 0 0 min 0,000 mm 77 W/m 5,1 C 6,6 C 0,0 km/h (0 Bft) 100 %
04.09.2017 08:40 7,2 C 6,6 C 7,2 C 90 % 1015,5 hPa 0,0 l/m 0,0 km/h (0 Bft) N 0 10 min 0,000 mm 250 W/m 5,7 C 7,2 C 0,0 km/h (0 Bft) 100 %
04.09.2017 08:50 8,2 C 7,2 C 8,2 C 91 % 1015,5 hPa 0,0 l/m 0,0 km/h (0 Bft) NW 315 10 min 0,000 mm 294 W/m 6,8 C 8,2 C 1,6 km/h (1 Bft) 100 %
04.09.2017 09:00 9,2 C 8,2 C 9,2 C 91 % 1015,5 hPa 0,0 l/m 0,0 km/h (0 Bft) N 0 10 min 0,051 mm 322 W/m 7,8 C 9,2 C 0,0 km/h (0 Bft) 100 %
04.09.2017 09:10 9,6 C 9,2 C 9,6 C 90 % 1015,6 hPa 0,0 l/m 0,0 km/h (0 Bft) N 0 10 min 0,000 mm 353 W/m 8,0 C 9,6 C 0,0 km/h (0 Bft) 99 %
04.09.2017 09:20 10,1 C 9,6 C 10,1 C 90 % 1015,7 hPa 0,0 l/m 0,0 km/h (0 Bft) N 0 10 min 0,000 mm 341 W/m 8,5 C 10,1 C 0,0 km/h (0 Bft) 100 %
04.09.2017 09:30 10,6 C 10,1 C 10,6 C 90 % 1015,8 hPa 0,0 l/m 0,0 km/h (0 Bft) N 0 10 min 0,000 mm 378 W/m 9,0 C 10,6 C 0,0 km/h (0 Bft) 100 %
04.09.2017 09:40 11,1 C 10,6 C 11,1 C 89 % 1015,8 hPa 0,0 l/m 0,0 km/h (0 Bft) NW 315 10 min 0,000 mm 383 W/m 9,4 C 11,1 C 1,6 km/h (1 Bft) 100 %
04.09.2017 09:50 11,6 C 11,2 C 11,6 C 89 % 1015,8 hPa 0,0 l/m 0,0 km/h (0 Bft) N 0 10 min 0,000 mm 424 W/m 9,8 C 11,6 C 0,0 km/h (0 Bft) 100 %
04.09.2017 10:00 12,2 C 11,6 C 12,2 C 89 % 1015,9 hPa 0,0 l/m 0,0 km/h (0 Bft) N 0 10 min 0,152 mm 383 W/m 10,4 C 12,2 C 0,0 km/h (0 Bft) 100 %
04.09.2017 10:10 12,8 C 12,2 C 12,8 C 89 % 1015,9 hPa 0,0 l/m 0,0 km/h (0 Bft) N 0 10 min 0,000 mm 352 W/m 11,0 C 12,8 C 0,0 km/h (0 Bft) 100 %
04.09.2017 10:20 13,4 C 12,8 C 13,4 C 88 % 1015,9 hPa 0,0 l/m 0,0 km/h (0 Bft) N 0 10 min 0,000 mm 575 W/m 11,5 C 13,4 C 0,0 km/h (0 Bft) 100 %
04.09.2017 10:30 14,3 C 13,4 C 14,3 C 89 % 1016,0 hPa 0,0 l/m 0,0 km/h (0 Bft) N 0 10 min 0,000 mm 633 W/m 12,5 C 14,3 C 0,0 km/h (0 Bft) 100 %
04.09.2017 10:40 15,3 C 14,3 C 15,3 C 83 % 1016,1 hPa 0,0 l/m 0,0 km/h (0 Bft) NW 315 10 min 0,000 mm 661 W/m 12,4 C 15,3 C 1,6 km/h (1 Bft) 100 %
04.09.2017 10:50 15,7 C 15,3 C 15,8 C 78 % 1016,2 hPa 0,0 l/m 1,6 km/h (1 Bft) SW 225 10 min 0,000 mm 543 W/m 11,9 C 15,7 C 6,4 km/h (2 Bft) 100 %
04.09.2017 11:00 15,8 C 15,6 C 15,8 C 79 % 1016,3 hPa 0,0 l/m 1,6 km/h (1 Bft) SW 225 10 min 0,203 mm 468 W/m 12,2 C 15,8 C 8,0 km/h (2 Bft) 100 %
04.09.2017 11:10 16,2 C 15,8 C 16,2 C 76 % 1016,4 hPa 0,0 l/m 3,2 km/h (1 Bft) SW 225 10 min 0,000 mm 696 W/m 12,0 C 16,2 C 8,0 km/h (2 Bft) 100 %
04.09.2017 11:20 16,4 C 16,2 C 16,4 C 77 % 1016,4 hPa 0,0 l/m 3,2 km/h (1 Bft) S 180 10 min 0,000 mm 733 W/m 12,4 C 16,4 C 8,0 km/h (2 Bft) 100 %
04.09.2017 11:30 16,4 C 16,3 C 16,6 C 78 % 1016,5 hPa 0,0 l/m 3,2 km/h (1 Bft) S 180 10 min 0,000 mm 563 W/m 12,6 C 16,4 C 8,0 km/h (2 Bft) 100 %
04.09.2017 11:40 16,8 C 16,4 C 16,8 C 74 % 1016,6 hPa 0,0 l/m 1,6 km/h (1 Bft) S-SW 202 10 min 0,000 mm 526 W/m 12,1 C 16,8 C 6,4 km/h (2 Bft) 100 %
04.09.2017 11:50 16,8 C 16,7 C 16,8 C 74 % 1016,6 hPa 0,0 l/m 0,0 km/h (0 Bft) S 180 10 min 0,000 mm 603 W/m 12,1 C 16,8 C 1,6 km/h (1 Bft) 100 %
04.09.2017 12:00 16,9 C 16,8 C 16,9 C 75 % 1016,7 hPa 0,0 l/m 1,6 km/h (1 Bft) S-SW 202 10 min 0,279 mm 585 W/m 12,4 C 16,9 C 6,4 km/h (2 Bft) 100 %
04.09.2017 12:10 17,4 C 16,9 C 17,4 C 72 % 1016,8 hPa 0,0 l/m 0,0 km/h (0 Bft) S-SW 202 10 min 0,000 mm 587 W/m 12,3 C 17,4 C 1,6 km/h (1 Bft) 100 %
04.09.2017 12:20 17,6 C 17,4 C 17,6 C 69 % 1016,7 hPa 0,0 l/m 0,0 km/h (0 Bft) S-SO 157 10 min 0,000 mm 636 W/m 11,8 C 17,6 C 4,8 km/h (1 Bft) 100 %
04.09.2017 12:30 17,8 C 17,5 C 17,8 C 71 % 1016,6 hPa 0,0 l/m 1,6 km/h (1 Bft) S 180 10 min 0,000 mm 747 W/m 12,5 C 17,8 C 8,0 km/h (2 Bft) 100 %
04.09.2017 12:40 18,1 C 17,8 C 18,1 C 69 % 1016,6 hPa 0,0 l/m 1,6 km/h (1 Bft) S-SO 157 10 min 0,000 mm 802 W/m 12,3 C 18,1 C 8,0 km/h (2 Bft) 100 %
04.09.2017 12:50 18,7 C 18,1 C 18,7 C 67 % 1016,6 hPa 0,0 l/m 1,6 km/h (1 Bft) SO 135 10 min 0,000 mm 812 W/m 12,4 C 18,7 C 14,5 km/h (3 Bft) 100 %
04.09.2017 13:00 18,8 C 18,7 C 18,8 C 62 % 1016,6 hPa 0,0 l/m 4,8 km/h (1 Bft) SO 135 10 min 0,330 mm 775 W/m 11,4 C 18,8 C 14,5 km/h (3 Bft) 100 %
04.09.2017 13:10 19,1 C 18,8 C 19,1 C 64 % 1016,6 hPa 0,0 l/m 1,6 km/h (1 Bft) S-SW 202 10 min 0,000 mm 775 W/m 12,1 C 19,1 C 11,3 km/h (2 Bft) 100 %
04.09.2017 13:20 19,5 C 19,1 C 19,5 C 62 % 1016,5 hPa 0,0 l/m 1,6 km/h (1 Bft) O-SO 112 10 min 0,000 mm 779 W/m 12,0 C 19,5 C 8,0 km/h (2 Bft) 100 %
04.09.2017 13:30 19,6 C 19,4 C 19,6 C 62 % 1016,6 hPa 0,0 l/m 6,4 km/h (2 Bft) O 90 10 min 0,000 mm 791 W/m 12,1 C 19,6 C 14,5 km/h (3 Bft) 100 %
04.09.2017 13:40 19,7 C 19,6 C 19,7 C 63 % 1016,6 hPa 0,0 l/m 3,2 km/h (1 Bft) SO 135 10 min 0,000 mm 803 W/m 12,5 C 19,7 C 9,7 km/h (2 Bft) 100 %
04.09.2017 13:50 19,7 C 19,7 C 19,7 C 61 % 1016,5 hPa 0,0 l/m 3,2 km/h (1 Bft) W-SW 247 10 min 0,000 mm 816 W/m 12,0 C 19,7 C 11,3 km/h (2 Bft) 100 %
04.09.2017 14:00 20,1 C 19,7 C 20,1 C 59 % 1016,6 hPa 0,0 l/m 4,8 km/h (1 Bft) S 180 10 min 0,432 mm 809 W/m 11,8 C 20,1 C 12,9 km/h (3 Bft) 100 %
04.09.2017 14:10 20,2 C 20,1 C 20,2 C 60 % 1016,6 hPa 0,0 l/m 3,2 km/h (1 Bft) W-NW 292 10 min 0,000 mm 766 W/m 12,2 C 20,2 C 14,5 km/h (3 Bft) 100 %
04.09.2017 14:20 20,4 C 20,2 C 20,4 C 59 % 1016,4 hPa 0,0 l/m 3,2 km/h (1 Bft) S-SW 202 10 min 0,000 mm 819 W/m 12,1 C 20,4 C 16,1 km/h (3 Bft) 100 %
04.09.2017 14:30 20,7 C 20,4 C 20,7 C 56 % 1016,5 hPa 0,0 l/m 4,8 km/h (1 Bft) S-SW 202 10 min 0,000 mm 863 W/m 11,6 C 20,7 C 17,7 km/h (3 Bft) 92 %
04.09.2017 14:40 20,7 C 20,7 C 20,8 C 55 % 1016,5 hPa 0,0 l/m 1,6 km/h (1 Bft) SW 225 10 min 0,000 mm 867 W/m 11,3 C 20,7 C 9,7 km/h (2 Bft) 100 %
04.09.2017 14:50 21,1 C 20,7 C 21,1 C 55 % 1016,4 hPa 0,0 l/m 1,6 km/h (1 Bft) W-SW 247 10 min 0,000 mm 828 W/m 11,7 C 21,1 C 16,1 km/h (3 Bft) 100 %
04.09.2017 15:00 20,6 C 20,6 C 21,1 C 59 % 1016,4 hPa 0,0 l/m 1,6 km/h (1 Bft) S-SW 202 10 min 0,432 mm 756 W/m 12,3 C 20,6 C 17,7 km/h (3 Bft) 100 %
04.09.2017 15:10 20,7 C 20,6 C 20,7 C 55 % 1016,3 hPa 0,0 l/m 3,2 km/h (1 Bft) W-SW 247 10 min 0,000 mm 786 W/m 11,3 C 20,7 C 16,1 km/h (3 Bft) 100 %
04.09.2017 15:20 20,7 C 20,7 C 20,7 C 57 % 1016,3 hPa 0,0 l/m 4,8 km/h (1 Bft) S-SW 202 10 min 0,000 mm 772 W/m 11,9 C 20,7 C 17,7 km/h (3 Bft) 100 %
04.09.2017 15:30 21,0 C 20,7 C 21,0 C 56 % 1016,4 hPa 0,0 l/m 6,4 km/h (2 Bft) W-NW 292 10 min 0,000 mm 768 W/m 11,9 C 21,0 C 11,3 km/h (2 Bft) 100 %
04.09.2017 15:40 20,9 C 20,8 C 21,0 C 57 % 1016,5 hPa 0,0 l/m 3,2 km/h (1 Bft) SW 225 10 min 0,000 mm 744 W/m 12,1 C 20,9 C 8,0 km/h (2 Bft) 100 %
04.09.2017 15:50 21,5 C 20,9 C 21,5 C 55 % 1016,5 hPa 0,0 l/m 6,4 km/h (2 Bft) NW 315 10 min 0,000 mm 726 W/m 12,1 C 21,5 C 11,3 km/h (2 Bft) 100 %
04.09.2017 16:00 21,3 C 21,3 C 21,6 C 52 % 1016,5 hPa 0,0 l/m 8,0 km/h (2 Bft) S-SW 202 10 min 0,330 mm 698 W/m 11,0 C 20,7 C 16,1 km/h (3 Bft) 100 %
04.09.2017 16:10 20,7 C 20,7 C 21,3 C 54 % 1016,5 hPa 0,0 l/m 3,2 km/h (1 Bft) S-SW 202 10 min 0,000 mm 612 W/m 11,1 C 20,7 C 16,1 km/h (3 Bft) 99 %
04.09.2017 16:20 20,7 C 20,6 C 20,7 C 56 % 1016,6 hPa 0,0 l/m 4,8 km/h (1 Bft) W-SW 247 10 min 0,000 mm 577 W/m 11,6 C 20,7 C 14,5 km/h (3 Bft) 100 %
04.09.2017 16:30 20,8 C 20,7 C 20,8 C 53 % 1016,5 hPa 0,0 l/m 4,8 km/h (1 Bft) S-SW 202 10 min 0,000 mm 497 W/m 10,9 C 20,8 C 17,7 km/h (3 Bft) 100 %
04.09.2017 16:40 20,9 C 20,8 C 20,9 C 54 % 1016,6 hPa 0,0 l/m 6,4 km/h (2 Bft) W-SW 247 0 min 0,000 mm 135 W/m 11,2 C 20,9 C 20,9 km/h (4 Bft) 100 %
04.09.2017 16:50 20,8 C 20,8 C 20,9 C 56 % 1016,5 hPa 0,0 l/m 3,2 km/h (1 Bft) SW 225 0 min 0,000 mm 95 W/m 11,7 C 20,8 C 14,5 km/h (3 Bft) 100 %
04.09.2017 17:00 20,5 C 20,5 C 20,8 C 57 % 1016,7 hPa 0,0 l/m 3,2 km/h (1 Bft) SW 225 0 min 0,178 mm 102 W/m 11,7 C 20,5 C 16,1 km/h (3 Bft) 100 %
04.09.2017 17:10 20,3 C 20,3 C 20,5 C 57 % 1016,6 hPa 0,0 l/m 4,8 km/h (1 Bft) W-SW 247 0 min 0,000 mm 95 W/m 11,5 C 20,3 C 14,5 km/h (3 Bft) 100 %
04.09.2017 17:20 20,4 C 20,3 C 20,4 C 54 % 1016,9 hPa 0,0 l/m 6,4 km/h (2 Bft) SW 225 0 min 0,000 mm 88 W/m 10,8 C 20,4 C 17,7 km/h (3 Bft) 100 %
04.09.2017 17:30 20,4 C 20,4 C 20,4 C 51 % 1016,8 hPa 0,0 l/m 8,0 km/h (2 Bft) W-SW 247 0 min 0,000 mm 111 W/m 9,9 C 19,8 C 19,3 km/h (3 Bft) 100 %
04.09.2017 17:40 20,4 C 20,4 C 20,4 C 53 % 1016,9 hPa 0,0 l/m 4,8 km/h (1 Bft) W-SW 247 0 min 0,000 mm 125 W/m 10,5 C 20,4 C 17,7 km/h (3 Bft) 100 %
04.09.2017 17:50 20,2 C 20,2 C 20,4 C 54 % 1016,9 hPa 0,0 l/m 8,0 km/h (2 Bft) W-SW 247 0 min 0,000 mm 107 W/m 10,6 C 19,6 C 16,1 km/h (3 Bft) 100 %
04.09.2017 18:00 19,9 C 19,9 C 20,2 C 54 % 1017,0 hPa 0,0 l/m 6,4 km/h (2 Bft) W-SW 247 0 min 0,102 mm 105 W/m 10,3 C 19,9 C 12,9 km/h (3 Bft) 100 %
04.09.2017 18:10 19,8 C 19,8 C 19,9 C 57 % 1017,0 hPa 0,0 l/m 6,4 km/h (2 Bft) W 270 0 min 0,000 mm 132 W/m 11,0 C 19,8 C 17,7 km/h (3 Bft) 100 %
04.09.2017 18:20 19,7 C 19,7 C 19,8 C 56 % 1017,1 hPa 0,0 l/m 9,7 km/h (2 Bft) W 270 0 min 0,000 mm 123 W/m 10,7 C 18,4 C 19,3 km/h (3 Bft) 100 %
04.09.2017 18:30 19,4 C 19,4 C 19,7 C 57 % 1017,2 hPa 0,0 l/m 6,4 km/h (2 Bft) W 270 0 min 0,000 mm 77 W/m 10,7 C 19,4 C 17,7 km/h (3 Bft) 100 %
04.09.2017 18:40 19,1 C 19,1 C 19,7 C 57 % 1017,1 hPa 0,0 l/m 8,6 km/h (2 Bft) W-SW 248 0 min 0,000 mm 37 W/m 10,4 C 18,2 C 16,1 km/h (3 Bft) 100 %
04.09.2017 18:50 18,7 C 18,7 C 19,1 C 59 % 1017,1 hPa 0,0 l/m 5,3 km/h (1 Bft) W 261 0 min 0,000 mm 23 W/m 10,5 C 18,7 C 14,5 km/h (3 Bft) 100 %
04.09.2017 19:00 18,3 C 18,3 C 18,7 C 60 % 1017,2 hPa 0,0 l/m 3,1 km/h (1 Bft) W 259 0 min 0,076 mm 33 W/m 10,4 C 18,3 C 8,0 km/h (2 Bft) 100 %
04.09.2017 19:10 17,9 C 17,9 C 18,3 C 63 % 1017,2 hPa 0,0 l/m 2,3 km/h (1 Bft) W-SW 254 0 min 0,000 mm 26 W/m 10,8 C 17,9 C 6,4 km/h (2 Bft) 100 %
04.09.2017 19:20 17,6 C 17,6 C 17,9 C 64 % 1017,3 hPa 0,0 l/m 2,5 km/h (1 Bft) W 261 0 min 0,000 mm 16 W/m 10,7 C 17,6 C 8,0 km/h (2 Bft) 100 %
04.09.2017 19:30 17,3 C 17,3 C 17,6 C 65 % 1017,6 hPa 0,0 l/m 0,6 km/h (0 Bft) W 261 0 min 0,000 mm 18 W/m 10,7 C 17,3 C 3,2 km/h (1 Bft) 100 %
04.09.2017 19:40 17,1 C 17,1 C 17,3 C 66 % 1017,5 hPa 0,0 l/m 0,0 km/h (0 Bft) W 261 0 min 0,000 mm 12 W/m 10,7 C 17,1 C 1,6 km/h (1 Bft) 100 %
04.09.2017 19:50 17,0 C 17,0 C 17,1 C 67 % 1017,7 hPa 0,0 l/m 0,5 km/h (0 Bft) W 261 0 min 0,000 mm 5 W/m 10,8 C 17,0 C 3,2 km/h (1 Bft) 100 %
04.09.2017 20:00 16,8 C 16,8 C 17,0 C 68 % 1017,8 hPa 0,0 l/m 0,0 km/h (0 Bft) W 261 0 min 0,026 mm 0 W/m 10,9 C 16,8 C 1,6 km/h (1 Bft) 100 %
04.09.2017 20:10 16,7 C 16,7 C 16,8 C 70 % 1017,9 hPa 0,0 l/m 1,9 km/h (1 Bft) W 261 0 min 0,000 mm 0 W/m 11,2 C 16,7 C 8,0 km/h (2 Bft) 100 %
04.09.2017 20:20 16,6 C 16,6 C 16,7 C 70 % 1017,9 hPa 0,0 l/m 0,4 km/h (0 Bft) W 261 0 min 0,000 mm 0 W/m 11,1 C 16,6 C 3,2 km/h (1 Bft) 100 %
04.09.2017 20:30 16,4 C 16,4 C 16,6 C 71 % 1017,9 hPa 0,0 l/m 0,0 km/h (0 Bft) W 261 0 min 0,000 mm 0 W/m 11,1 C 16,4 C 0,0 km/h (0 Bft) 100 %
04.09.2017 20:40 16,3 C 16,3 C 16,4 C 71 % 1018,0 hPa 0,0 l/m 0,0 km/h (0 Bft) W 261 0 min 0,000 mm 0 W/m 11,0 C 16,3 C 1,6 km/h (1 Bft) 100 %
04.09.2017 20:50 16,2 C 16,2 C 16,3 C 73 % 1018,1 hPa 0,0 l/m 1,2 km/h (1 Bft) W 261 0 min 0,000 mm 0 W/m 11,4 C 16,2 C 4,8 km/h (1 Bft) 100 %
04.09.2017 21:00 16,1 C 16,1 C 16,2 C 73 % 1018,3 hPa 0,0 l/m 1,0 km/h (0 Bft) W 261 0 min 0,000 mm 0 W/m 11,3 C 16,1 C 4,8 km/h (1 Bft) 100 %
04.09.2017 21:10 15,9 C 15,9 C 16,1 C 74 % 1018,4 hPa 0,0 l/m 0,0 km/h (0 Bft) N 0 0 min 0,000 mm 0 W/m 11,3 C 15,9 C 0,0 km/h (0 Bft) 100 %
04.09.2017 21:20 15,9 C 15,9 C 15,9 C 75 % 1018,3 hPa 0,0 l/m 1,6 km/h (1 Bft) W 270 0 min 0,000 mm 0 W/m 11,5 C 15,9 C 6,4 km/h (2 Bft) 100 %
04.09.2017 21:30 15,8 C 15,8 C 15,9 C 75 % 1018,3 hPa 0,0 l/m 1,6 km/h (1 Bft) W 270 0 min 0,000 mm 0 W/m 11,4 C 15,8 C 4,8 km/h (1 Bft) 100 %
04.09.2017 21:40 15,8 C 15,8 C 15,8 C 76 % 1018,4 hPa 0,0 l/m 0,0 km/h (0 Bft) W 270 0 min 0,000 mm 0 W/m 11,6 C 15,8 C 4,8 km/h (1 Bft) 100 %
04.09.2017 21:50 15,7 C 15,7 C 15,8 C 77 % 1018,5 hPa 0,0 l/m 0,0 km/h (0 Bft) W 270 0 min 0,000 mm 0 W/m 11,7 C 15,7 C 3,2 km/h (1 Bft) 100 %
04.09.2017 22:00 15,6 C 15,6 C 15,7 C 77 % 1018,6 hPa 0,0 l/m 0,0 km/h (0 Bft) N 0 0 min 0,025 mm 0 W/m 11,6 C 15,6 C 0,0 km/h (0 Bft) 100 %
04.09.2017 22:10 15,4 C 15,4 C 15,6 C 78 % 1018,8 hPa 0,0 l/m 0,0 km/h (0 Bft) N 0 0 min 0,000 mm 0 W/m 11,6 C 15,4 C 0,0 km/h (0 Bft) 100 %
04.09.2017 22:20 15,3 C 15,3 C 15,4 C 77 % 1018,7 hPa 0,0 l/m 0,0 km/h (0 Bft) N 0 0 min 0,000 mm 0 W/m 11,3 C 15,3 C 0,0 km/h (0 Bft) 100 %
04.09.2017 22:30 15,3 C 15,3 C 15,3 C 78 % 1018,8 hPa 0,0 l/m 0,0 km/h (0 Bft) N 0 0 min 0,000 mm 0 W/m 11,5 C 15,3 C 0,0 km/h (0 Bft) 100 %
04.09.2017 22:40 15,3 C 15,2 C 15,3 C 79 % 1018,8 hPa 0,0 l/m 0,0 km/h (0 Bft) N 0 0 min 0,000 mm 0 W/m 11,7 C 15,3 C 0,0 km/h (0 Bft) 100 %
04.09.2017 22:50 15,1 C 15,1 C 15,3 C 78 % 1019,0 hPa 0,0 l/m 0,0 km/h (0 Bft) N 0 0 min 0,000 mm 0 W/m 11,3 C 15,1 C 0,0 km/h (0 Bft) 100 %
04.09.2017 23:00 15,1 C 15,1 C 15,1 C 81 % 1019,0 hPa 0,0 l/m 0,0 km/h (0 Bft) N 0 0 min 0,025 mm 0 W/m 11,9 C 15,1 C 0,0 km/h (0 Bft) 90 %
04.09.2017 23:10 14,9 C 14,9 C 15,1 C 80 % 1019,0 hPa 0,0 l/m 1,6 km/h (1 Bft) W 270 0 min 0,000 mm 0 W/m 11,5 C 14,9 C 4,8 km/h (1 Bft) 100 %
04.09.2017 23:20 14,8 C 14,8 C 14,9 C 84 % 1019,1 hPa 0,0 l/m 0,0 km/h (0 Bft) W 270 0 min 0,000 mm 0 W/m 12,1 C 14,8 C 3,2 km/h (1 Bft) 100 %
04.09.2017 23:30 14,6 C 14,6 C 14,8 C 84 % 1019,1 hPa 0,0 l/m 0,0 km/h (0 Bft) W 270 0 min 0,000 mm 0 W/m 11,9 C 14,6 C 1,6 km/h (1 Bft) 100 %
04.09.2017 23:40 14,5 C 14,5 C 14,6 C 84 % 1019,1 hPa 0,0 l/m 0,0 km/h (0 Bft) W 270 0 min 0,000 mm 0 W/m 11,8 C 14,5 C 3,2 km/h (1 Bft) 100 %
04.09.2017 23:50 14,3 C 14,3 C 14,5 C 85 % 1019,1 hPa 0,0 l/m 0,0 km/h (0 Bft) W 270 0 min 0,000 mm 0 W/m 11,8 C 14,3 C 6,4 km/h (2 Bft) 100 %
_ Min-Zeit 07:00 07:00 07:00 17:30 04:30 - 00:00 - - - - - 07:10 07:10 00:10 08:00
Minimum _ 5,7 C 5,7 C 5,8 C 51 % 1014,5 hPa - 0,0 km/h (0 Bft) - - - - - 4,2 C 5,7 C 0,0 km/h (0 Bft) 87 %
_ Max-Zeit 16:00 16:00 16:00 08:50 23:20 00:00 18:20 - - 08:40 14:00 14:40 11:30 15:50 16:40 00:10
Maximum _ 21,6 C 21,3 C 21,6 C 91 % 1019,1 hPa 0,0 l/m 9,7 km/h
W (2 Bft)
- - 10 min 0,432 mm 867 W/m 12,6 C 21,5 C 20,9 km/h
S-SW (4 Bft)
100 %
Durchschnitt _ 13,5 C 13,4 C 13,6 C 77 % 1016,3 hPa #0,0 l/m 1,5 km/h (1 Bft) W-SW - #8:00 h #2,641 mm 406 W/m 9,2 C 13,5 C 5,2 km/h (1 Bft) 100 %
PRIVATE WETTERSTATION BILLIGHEIM-ALLFELD - www.neckar-odenwald-wetter.de - Holger Sonntag